Archival Weather

Chicago O'Hare International

Chicago, Illinois (KORD)

Report from: Saturday, December 31, 2022 11:51 PM CST
Current time: Friday, April 19, 2024 5:17 AM CDT

Current weather – Weather history – Daily summaries
Weather forecast

Temperature2.8°C (37.0°F)
Wind chill-0.2°C (31.6°F)
Dew point0.0°C (32.0°F)
Winds 6 kts (3.1 m/s, 6.9 mph) East-Southeast (110°)
Visibility7 mi. (11.3 km)
Clouds Ceiling: Overcast 7,000 ft. (2,134 m)
Altimeter29.83 in.Hg (1010 mB)
Relative humidity82 %
Density altitude-1,309 ft. (-399 m)
Sea-level pressure101.1 kPa (1011 mB, 29.85 in.Hg)
Max temp last 6 hours2.8°C (37.0°F)
Min temp last 6 hours2.2°C (36.0°F)
Max temp last 24 hours3.9°C (39.0°F)
Min temp last 24 hours-3.3°C (26.1°F)
Remarks Automated weather observing station with precipitation discriminator
Pressure falling more quickly
Flight conditions Visual Meteorological Conditions
Raw dataKORD 010551Z 11006KT 7SM OVC070 03/00 A2983 RMK AO2 SLP109 T00280000 10028 20022 400391033 58009
An error has occurred. This application may no longer respond until reloaded. Reload 🗙